sensor_id;sensor_type;location;lat;lon;timestamp;pressure;altitude;pressure_sealevel;temperature
64296;BMP280;51082;38.236;15.432;2023-03-21T00:00:35;100983.16;;;13.85
64296;BMP280;51082;38.236;15.432;2023-03-21T00:01:39;100982.56;;;13.83
64296;BMP280;51082;38.236;15.432;2023-03-21T00:02:42;100981.97;;;13.81
64296;BMP280;51082;38.236;15.432;2023-03-21T00:03:43;100979.34;;;13.81
64296;BMP280;51082;38.236;15.432;2023-03-21T00:04:46;100977.34;;;13.83
64296;BMP280;51082;38.236;15.432;2023-03-21T00:05:48;100973.72;;;13.84
64296;BMP280;51082;38.236;15.432;2023-03-21T00:06:53;100981.34;;;13.85
64296;BMP280;51082;38.236;15.432;2023-03-21T00:07:55;100974.91;;;13.88
64296;BMP280;51082;38.236;15.432;2023-03-21T00:08:57;100970.47;;;13.88
64296;BMP280;51082;38.236;15.432;2023-03-21T00:09:59;100965.44;;;13.87
64296;BMP280;51082;38.236;15.432;2023-03-21T00:11:03;100959.41;;;13.86
64296;BMP280;51082;38.236;15.432;2023-03-21T00:12:06;100957.59;;;13.87
64296;BMP280;51082;38.236;15.432;2023-03-21T00:13:10;100957.81;;;13.85
64296;BMP280;51082;38.236;15.432;2023-03-21T00:14:13;100953.56;;;13.84
64296;BMP280;51082;38.236;15.432;2023-03-21T00:15:20;100931.84;;;13.84
64296;BMP280;51082;38.236;15.432;2023-03-21T00:16:21;100930.25;;;13.83
64296;BMP280;51082;38.236;15.432;2023-03-21T00:17:27;100928.63;;;13.82
64296;BMP280;51082;38.236;15.432;2023-03-21T00:18:31;100926.03;;;13.82
64296;BMP280;51082;38.236;15.432;2023-03-21T00:19:37;100927.41;;;13.77
64296;BMP280;51082;38.236;15.432;2023-03-21T00:20:38;100927.41;;;13.77
64296;BMP280;51082;38.236;15.432;2023-03-21T00:21:43;100921.00;;;13.73
64296;BMP280;51082;38.236;15.432;2023-03-21T00:22:45;100912.53;;;13.71
64296;BMP280;51082;38.236;15.432;2023-03-21T00:23:48;100919.59;;;13.71
64296;BMP280;51082;38.236;15.432;2023-03-21T00:24:50;100919.38;;;13.72
64296;BMP280;51082;38.236;15.432;2023-03-21T00:25:54;100927.44;;;13.71
64296;BMP280;51082;38.236;15.432;2023-03-21T00:26:55;100937.50;;;13.67
64296;BMP280;51082;38.236;15.432;2023-03-21T00:27:58;100946.16;;;13.68
64296;BMP280;51082;38.236;15.432;2023-03-21T00:29:00;100955.19;;;13.65
64296;BMP280;51082;38.236;15.432;2023-03-21T00:30:04;100963.66;;;13.61
64296;BMP280;51082;38.236;15.432;2023-03-21T00:31:06;100957.41;;;13.62
64296;BMP280;51082;38.236;15.432;2023-03-21T00:32:09;100950.59;;;13.67
64296;BMP280;51082;38.236;15.432;2023-03-21T00:33:12;100937.09;;;13.70
64296;BMP280;51082;38.236;15.432;2023-03-21T00:34:15;100926.22;;;13.73
64296;BMP280;51082;38.236;15.432;2023-03-21T00:35:17;100923.59;;;13.73
64296;BMP280;51082;38.236;15.432;2023-03-21T00:36:19;100919.81;;;13.76
64296;BMP280;51082;38.236;15.432;2023-03-21T00:37:21;100920.59;;;13.76
64296;BMP280;51082;38.236;15.432;2023-03-21T00:38:24;100925.41;;;13.79
64296;BMP280;51082;38.236;15.432;2023-03-21T00:39:26;100927.63;;;13.83
64296;BMP280;51082;38.236;15.432;2023-03-21T00:40:29;100928.00;;;13.79
64296;BMP280;51082;38.236;15.432;2023-03-21T00:41:31;100933.25;;;13.79
64296;BMP280;51082;38.236;15.432;2023-03-21T00:42:33;100923.00;;;13.78
64296;BMP280;51082;38.236;15.432;2023-03-21T00:43:35;100922.19;;;13.77
64296;BMP280;51082;38.236;15.432;2023-03-21T00:44:38;100921.41;;;13.77
64296;BMP280;51082;38.236;15.432;2023-03-21T00:45:40;100917.38;;;13.74
64296;BMP280;51082;38.236;15.432;2023-03-21T00:46:43;100918.59;;;13.72
64296;BMP280;51082;38.236;15.432;2023-03-21T00:47:44;100916.19;;;13.70
64296;BMP280;51082;38.236;15.432;2023-03-21T00:48:49;100926.03;;;13.68
64296;BMP280;51082;38.236;15.432;2023-03-21T00:49:51;100928.03;;;13.66
64296;BMP280;51082;38.236;15.432;2023-03-21T00:50:55;100924.44;;;13.67
64296;BMP280;51082;38.236;15.432;2023-03-21T00:51:57;100927.06;;;13.67
64296;BMP280;51082;38.236;15.432;2023-03-21T00:53:00;100929.47;;;13.69
64296;BMP280;51082;38.236;15.432;2023-03-21T00:54:01;100931.28;;;13.68
64296;BMP280;51082;38.236;15.432;2023-03-21T00:55:06;100933.09;;;13.68
64296;BMP280;51082;38.236;15.432;2023-03-21T00:56:08;100935.50;;;13.69
64296;BMP280;51082;38.236;15.432;2023-03-21T00:57:11;100927.06;;;13.67
64296;BMP280;51082;38.236;15.432;2023-03-21T00:58:13;100921.81;;;13.67
64296;BMP280;51082;38.236;15.432;2023-03-21T00:59:16;100932.28;;;13.67
64296;BMP280;51082;38.236;15.432;2023-03-21T01:00:18;100932.28;;;13.67
64296;BMP280;51082;38.236;15.432;2023-03-21T01:01:21;100937.91;;;13.71
64296;BMP280;51082;38.236;15.432;2023-03-21T01:02:23;100929.84;;;13.72
64296;BMP280;51082;38.236;15.432;2023-03-21T01:03:26;100925.22;;;13.74
64296;BMP280;51082;38.236;15.432;2023-03-21T01:04:30;100928.47;;;13.76
64296;BMP280;51082;38.236;15.432;2023-03-21T01:05:35;100928.47;;;13.76
64296;BMP280;51082;38.236;15.432;2023-03-21T01:06:55;100938.91;;;13.76
64296;BMP280;51082;38.236;15.432;2023-03-21T01:07:58;100930.03;;;13.77
64296;BMP280;51082;38.236;15.432;2023-03-21T01:09:00;100936.31;;;13.76
64296;BMP280;51082;38.236;15.432;2023-03-21T01:10:03;100937.09;;;13.70
64296;BMP280;51082;38.236;15.432;2023-03-21T01:11:07;100934.50;;;13.70
64296;BMP280;51082;38.236;15.432;2023-03-21T01:12:11;100934.28;;;13.72
64296;BMP280;51082;38.236;15.432;2023-03-21T01:13:14;100928.63;;;13.75
64296;BMP280;51082;38.236;15.432;2023-03-21T01:14:19;100930.28;;;13.76
64296;BMP280;51082;38.236;15.432;2023-03-21T01:15:21;100933.44;;;13.78
64296;BMP280;51082;38.236;15.432;2023-03-21T01:16:24;100938.91;;;13.76
64296;BMP280;51082;38.236;15.432;2023-03-21T01:17:25;100933.44;;;13.78
64296;BMP280;51082;38.236;15.432;2023-03-21T01:18:29;100928.00;;;13.79
64296;BMP280;51082;38.236;15.432;2023-03-21T01:19:32;100927.03;;;13.81
64296;BMP280;51082;38.236;15.432;2023-03-21T01:20:35;100927.03;;;13.81
64296;BMP280;51082;38.236;15.432;2023-03-21T01:21:37;100932.25;;;13.81
64296;BMP280;51082;38.236;15.432;2023-03-21T01:22:40;100943.91;;;13.78
64296;BMP280;51082;38.236;15.432;2023-03-21T01:23:42;100952.81;;;13.77
64296;BMP280;51082;38.236;15.432;2023-03-21T01:24:45;100962.47;;;13.76
64296;BMP280;51082;38.236;15.432;2023-03-21T01:25:48;100958.81;;;13.77
64296;BMP280;51082;38.236;15.432;2023-03-21T01:26:50;100948.34;;;13.77
64296;BMP280;51082;38.236;15.432;2023-03-21T01:27:52;100944.72;;;13.78
64296;BMP280;51082;38.236;15.432;2023-03-21T01:28:54;100947.13;;;13.80
64296;BMP280;51082;38.236;15.432;2023-03-21T01:29:57;100939.50;;;13.78
64296;BMP280;51082;38.236;15.432;2023-03-21T01:31:00;100937.50;;;13.81
64296;BMP280;51082;38.236;15.432;2023-03-21T01:32:03;100933.88;;;13.82
64296;BMP280;51082;38.236;15.432;2023-03-21T01:33:05;100934.47;;;13.84
64296;BMP280;51082;38.236;15.432;2023-03-21T01:34:08;100942.91;;;13.86
64296;BMP280;51082;38.236;15.432;2023-03-21T01:35:11;100943.94;;;13.85
64296;BMP280;51082;38.236;15.432;2023-03-21T01:36:17;100936.06;;;13.85
64296;BMP280;51082;38.236;15.432;2023-03-21T01:37:18;100923.19;;;13.83
64296;BMP280;51082;38.236;15.432;2023-03-21T01:38:21;100930.00;;;13.84
64296;BMP280;51082;38.236;15.432;2023-03-21T01:39:22;100926.63;;;13.84
64296;BMP280;51082;38.236;15.432;2023-03-21T01:40:26;100926.63;;;13.84
64296;BMP280;51082;38.236;15.432;2023-03-21T01:41:29;100924.78;;;13.84
64296;BMP280;51082;38.236;15.432;2023-03-21T01:42:32;100925.00;;;13.83
64296;BMP280;51082;38.236;15.432;2023-03-21T01:43:34;100914.53;;;13.83
64296;BMP280;51082;38.236;15.432;2023-03-21T01:44:51;100905.69;;;13.84
64296;BMP280;51082;38.236;15.432;2023-03-21T01:47:37;100905.69;;;13.84
64296;BMP280;51082;38.236;15.432;2023-03-21T01:48:41;100904.88;;;13.83
64296;BMP280;51082;38.236;15.432;2023-03-21T01:49:45;100910.13;;;13.83
64296;BMP280;51082;38.236;15.432;2023-03-21T01:50:51;100901.47;;;13.83
64296;BMP280;51082;38.236;15.432;2023-03-21T01:51:55;100902.47;;;13.82
64296;BMP280;51082;38.236;15.432;2023-03-21T01:52:59;100894.63;;;13.82
64296;BMP280;51082;38.236;15.432;2023-03-21T01:54:01;100897.25;;;13.82
64296;BMP280;51082;38.236;15.432;2023-03-21T01:55:06;100904.28;;;13.81
64296;BMP280;51082;38.236;15.432;2023-03-21T01:56:16;100900.88;;;13.81
64296;BMP280;51082;38.236;15.432;2023-03-21T01:57:22;100895.00;;;13.78
64296;BMP280;51082;38.236;15.432;2023-03-21T01:58:33;100890.78;;;13.77
64296;BMP280;51082;38.236;15.432;2023-03-21T01:59:39;100886.97;;;13.80
64296;BMP280;51082;38.236;15.432;2023-03-21T02:00:42;100896.03;;;13.77
64296;BMP280;51082;38.236;15.432;2023-03-21T02:01:44;100894.44;;;13.76
64296;BMP280;51082;38.236;15.432;2023-03-21T02:02:47;100889.78;;;13.78
64296;BMP280;51082;38.236;15.432;2023-03-21T02:03:51;100887.16;;;13.78
64296;BMP280;51082;38.236;15.432;2023-03-21T02:04:54;100877.72;;;13.77
64296;BMP280;51082;38.236;15.432;2023-03-21T02:06:01;100886.59;;;13.76
64296;BMP280;51082;38.236;15.432;2023-03-21T02:07:08;100887.19;;;13.72
64296;BMP280;51082;38.236;15.432;2023-03-21T02:08:12;100889.00;;;13.71
64296;BMP280;51082;38.236;15.432;2023-03-21T02:09:18;100889.22;;;13.70
64296;BMP280;51082;38.236;15.432;2023-03-21T02:10:24;100886.81;;;13.68
64296;BMP280;51082;38.236;15.432;2023-03-21T02:11:27;100883.19;;;13.69
64296;BMP280;51082;38.236;15.432;2023-03-21T02:12:31;100883.19;;;13.69
64296;BMP280;51082;38.236;15.432;2023-03-21T02:13:33;100881.56;;;13.68
64296;BMP280;51082;38.236;15.432;2023-03-21T02:14:37;100879.16;;;13.67
64296;BMP280;51082;38.236;15.432;2023-03-21T02:15:43;100876.72;;;13.65
64296;BMP280;51082;38.236;15.432;2023-03-21T02:16:51;100866.50;;;13.64
64296;BMP280;51082;38.236;15.432;2023-03-21T02:17:58;100866.50;;;13.64
64296;BMP280;51082;38.236;15.432;2023-03-21T02:19:23;100871.09;;;13.62
64296;BMP280;51082;38.236;15.432;2023-03-21T02:20:46;100880.78;;;13.61
64296;BMP280;51082;38.236;15.432;2023-03-21T02:24:14;100883.38;;;13.61
64296;BMP280;51082;38.236;15.432;2023-03-21T02:27:11;100891.22;;;13.61
64296;BMP280;51082;38.236;15.432;2023-03-21T02:28:17;100890.25;;;13.62
64296;BMP280;51082;38.236;15.432;2023-03-21T02:29:42;100887.63;;;13.62
64296;BMP280;51082;38.236;15.432;2023-03-21T02:31:13;100897.25;;;13.62
64296;BMP280;51082;38.236;15.432;2023-03-21T02:32:27;100896.47;;;13.61
64296;BMP280;51082;38.236;15.432;2023-03-21T02:35:24;100898.69;;;13.64
64296;BMP280;51082;38.236;15.432;2023-03-21T02:36:59;100906.53;;;13.64
64296;BMP280;51082;38.236;15.432;2023-03-21T02:38:07;100899.50;;;13.65
64296;BMP280;51082;38.236;15.432;2023-03-21T02:39:12;100907.56;;;13.63
64296;BMP280;51082;38.236;15.432;2023-03-21T02:40:22;100903.31;;;13.62
64296;BMP280;51082;38.236;15.432;2023-03-21T02:41:34;100906.91;;;13.61
64296;BMP280;51082;38.236;15.432;2023-03-21T02:42:43;100896.91;;;13.58
64296;BMP280;51082;38.236;15.432;2023-03-21T02:43:56;100904.13;;;13.56
64296;BMP280;51082;38.236;15.432;2023-03-21T02:45:02;100898.09;;;13.56
64296;BMP280;51082;38.236;15.432;2023-03-21T02:46:10;100891.03;;;13.56
64296;BMP280;51082;38.236;15.432;2023-03-21T02:47:19;100899.28;;;13.53
64296;BMP280;51082;38.236;15.432;2023-03-21T02:48:27;100889.06;;;13.52
64296;BMP280;51082;38.236;15.432;2023-03-21T02:49:36;100897.69;;;13.52
64296;BMP280;51082;38.236;15.432;2023-03-21T02:50:46;100884.81;;;13.51
64296;BMP280;51082;38.236;15.432;2023-03-21T02:51:49;100887.44;;;13.51
64296;BMP280;51082;38.236;15.432;2023-03-21T02:52:55;100882.41;;;13.49
64296;BMP280;51082;38.236;15.432;2023-03-21T02:54:01;100877.19;;;13.49
64296;BMP280;51082;38.236;15.432;2023-03-21T02:55:07;100885.03;;;13.49
64296;BMP280;51082;38.236;15.432;2023-03-21T02:56:14;100882.41;;;13.49
64296;BMP280;51082;38.236;15.432;2023-03-21T02:57:18;100875.56;;;13.48
64296;BMP280;51082;38.236;15.432;2023-03-21T02:58:22;100880.78;;;13.48
64296;BMP280;51082;38.236;15.432;2023-03-21T02:59:28;100879.19;;;13.47
64296;BMP280;51082;38.236;15.432;2023-03-21T03:00:31;100882.81;;;13.46
64296;BMP280;51082;38.236;15.432;2023-03-21T03:01:35;100880.19;;;13.46
64296;BMP280;51082;38.236;15.432;2023-03-21T03:02:37;100872.34;;;13.46
64296;BMP280;51082;38.236;15.432;2023-03-21T03:03:40;100889.06;;;13.45
64296;BMP280;51082;38.236;15.432;2023-03-21T03:04:42;100876.19;;;13.43
64296;BMP280;51082;38.236;15.432;2023-03-21T03:05:48;100884.41;;;13.47
64296;BMP280;51082;38.236;15.432;2023-03-21T03:07:11;100872.34;;;13.46
64296;BMP280;51082;38.236;15.432;2023-03-21T03:08:26;100872.94;;;13.48
64296;BMP280;51082;38.236;15.432;2023-03-21T03:09:38;100874.75;;;13.47
64296;BMP280;51082;38.236;15.432;2023-03-21T03:10:55;100865.09;;;13.48
64296;BMP280;51082;38.236;15.432;2023-03-21T03:12:03;100866.91;;;13.47
64296;BMP280;51082;38.236;15.432;2023-03-21T03:13:17;100865.09;;;13.48
64296;BMP280;51082;38.236;15.432;2023-03-21T03:14:35;100864.50;;;13.46
64296;BMP280;51082;38.236;15.432;2023-03-21T03:15:48;100869.34;;;13.42
64296;BMP280;51082;38.236;15.432;2023-03-21T03:17:02;100866.34;;;13.39
64296;BMP280;51082;38.236;15.432;2023-03-21T03:18:18;100866.75;;;13.36
64296;BMP280;51082;38.236;15.432;2023-03-21T03:19:24;100877.19;;;13.36
64296;BMP280;51082;38.236;15.432;2023-03-21T03:20:34;100870.34;;;13.35
64296;BMP280;51082;38.236;15.432;2023-03-21T03:21:41;100879.19;;;13.34
64296;BMP280;51082;38.236;15.432;2023-03-21T03:22:51;100873.78;;;13.35
64296;BMP280;51082;38.236;15.432;2023-03-21T03:23:58;100865.09;;;13.35
64296;BMP280;51082;38.236;15.432;2023-03-21T03:25:06;100863.34;;;13.35
64296;BMP280;51082;38.236;15.432;2023-03-21T03:26:13;100865.09;;;13.35
64296;BMP280;51082;38.236;15.432;2023-03-21T03:27:22;100869.75;;;13.33
64296;BMP280;51082;38.236;15.432;2023-03-21T03:28:28;100868.16;;;13.32
64296;BMP280;51082;38.236;15.432;2023-03-21T03:29:33;100866.34;;;13.32
64296;BMP280;51082;38.236;15.432;2023-03-21T03:30:36;100858.28;;;13.34
64296;BMP280;51082;38.236;15.432;2023-03-21T03:31:42;100860.88;;;13.34
64296;BMP280;51082;38.236;15.432;2023-03-21T03:32:49;100855.47;;;13.35
64296;BMP280;51082;38.236;15.432;2023-03-21T03:33:58;100850.84;;;13.37
64296;BMP280;51082;38.236;15.432;2023-03-21T03:35:03;100852.25;;;13.33
64296;BMP280;51082;38.236;15.432;2023-03-21T03:36:07;100849.88;;;13.32
64296;BMP280;51082;38.236;15.432;2023-03-21T03:37:14;100845.03;;;13.29
64296;BMP280;51082;38.236;15.432;2023-03-21T03:38:17;100845.44;;;13.26
64296;BMP280;51082;38.236;15.432;2023-03-21T03:39:28;100851.88;;;13.23
64296;BMP280;51082;38.236;15.432;2023-03-21T03:40:36;100840.63;;;13.23
64296;BMP280;51082;38.236;15.432;2023-03-21T03:41:46;100843.84;;;13.18
64296;BMP280;51082;38.236;15.432;2023-03-21T03:42:52;100839.81;;;13.15
64296;BMP280;51082;38.236;15.432;2023-03-21T03:43:57;100836.97;;;13.17
64296;BMP280;51082;38.236;15.432;2023-03-21T03:45:00;100837.38;;;13.21
64296;BMP280;51082;38.236;15.432;2023-03-21T03:46:09;100839.19;;;13.20
64296;BMP280;51082;38.236;15.432;2023-03-21T03:47:17;100840.63;;;13.23
64296;BMP280;51082;38.236;15.432;2023-03-21T03:48:22;100833.75;;;13.22
64296;BMP280;51082;38.236;15.432;2023-03-21T03:49:28;100827.34;;;13.24
64296;BMP280;51082;38.236;15.432;2023-03-21T03:50:36;100826.34;;;13.25
64296;BMP280;51082;38.236;15.432;2023-03-21T03:51:44;100826.34;;;13.25
64296;BMP280;51082;38.236;15.432;2023-03-21T03:52:55;100825.13;;;13.28
64296;BMP280;51082;38.236;15.432;2023-03-21T03:54:02;100832.97;;;13.28
64296;BMP280;51082;38.236;15.432;2023-03-21T03:55:09;100832.16;;;13.27
64296;BMP280;51082;38.236;15.432;2023-03-21T03:56:12;100829.75;;;13.26
64296;BMP280;51082;38.236;15.432;2023-03-21T03:57:15;100824.72;;;13.24
64296;BMP280;51082;38.236;15.432;2023-03-21T03:58:17;100816.09;;;13.24
64296;BMP280;51082;38.236;15.432;2023-03-21T03:59:21;100816.09;;;13.24
64296;BMP280;51082;38.236;15.432;2023-03-21T04:00:22;100810.84;;;13.24
64296;BMP280;51082;38.236;15.432;2023-03-21T04:01:26;100821.31;;;13.24
64296;BMP280;51082;38.236;15.432;2023-03-21T04:02:27;100825.72;;;13.23
64296;BMP280;51082;38.236;15.432;2023-03-21T04:03:33;100824.94;;;13.23
64296;BMP280;51082;38.236;15.432;2023-03-21T04:04:35;100830.16;;;13.23
64296;BMP280;51082;38.236;15.432;2023-03-21T04:05:38;100832.16;;;13.21
64296;BMP280;51082;38.236;15.432;2023-03-21T04:06:40;100834.59;;;13.22
64296;BMP280;51082;38.236;15.432;2023-03-21T04:07:42;100829.16;;;13.24
64296;BMP280;51082;38.236;15.432;2023-03-21T04:08:44;100829.16;;;13.24
64296;BMP280;51082;38.236;15.432;2023-03-21T04:09:47;100833.19;;;13.20
64296;BMP280;51082;38.236;15.432;2023-03-21T04:10:50;100826.13;;;13.20
64296;BMP280;51082;38.236;15.432;2023-03-21T04:11:53;100830.34;;;13.21
64296;BMP280;51082;38.236;15.432;2023-03-21T04:12:55;100827.72;;;13.21
64296;BMP280;51082;38.236;15.432;2023-03-21T04:13:58;100824.13;;;13.22
64296;BMP280;51082;38.236;15.432;2023-03-21T04:14:59;100821.53;;;13.22
64296;BMP280;51082;38.236;15.432;2023-03-21T04:16:02;100824.94;;;13.23
64296;BMP280;51082;38.236;15.432;2023-03-21T04:17:04;100817.28;;;13.21
64296;BMP280;51082;38.236;15.432;2023-03-21T04:18:07;100818.06;;;13.22
64296;BMP280;51082;38.236;15.432;2023-03-21T04:19:09;100811.25;;;13.21
64296;BMP280;51082;38.236;15.432;2023-03-21T04:20:12;100809.44;;;13.21
64296;BMP280;51082;38.236;15.432;2023-03-21T04:21:14;100807.63;;;13.22
64296;BMP280;51082;38.236;15.432;2023-03-21T04:22:17;100804.03;;;13.23
64296;BMP280;51082;38.236;15.432;2023-03-21T04:23:19;100804.81;;;13.23
64296;BMP280;51082;38.236;15.432;2023-03-21T04:24:21;100803.00;;;13.24
64296;BMP280;51082;38.236;15.432;2023-03-21T04:25:23;100802.00;;;13.25
64296;BMP280;51082;38.236;15.432;2023-03-21T04:26:29;100807.22;;;13.25
64296;BMP280;51082;38.236;15.432;2023-03-21T04:27:33;100814.47;;;13.23
64296;BMP280;51082;38.236;15.432;2023-03-21T04:28:36;100812.66;;;13.23
64296;BMP280;51082;38.236;15.432;2023-03-21T04:29:38;100809.44;;;13.28
64296;BMP280;51082;38.236;15.432;2023-03-21T04:30:41;100810.03;;;13.30
64296;BMP280;51082;38.236;15.432;2023-03-21T04:31:42;100818.50;;;13.32
64296;BMP280;51082;38.236;15.432;2023-03-21T04:32:46;100822.69;;;13.33
64296;BMP280;51082;38.236;15.432;2023-03-21T04:33:54;100824.72;;;13.31
64296;BMP280;51082;38.236;15.432;2023-03-21T04:34:57;100819.50;;;13.31
64296;BMP280;51082;38.236;15.432;2023-03-21T04:35:58;100821.09;;;13.32
64296;BMP280;51082;38.236;15.432;2023-03-21T04:37:01;100823.72;;;13.32
64296;BMP280;51082;38.236;15.432;2023-03-21T04:38:11;100825.31;;;13.33
64296;BMP280;51082;38.236;15.432;2023-03-21T04:39:14;100827.72;;;13.34
64296;BMP280;51082;38.236;15.432;2023-03-21T04:40:16;100824.91;;;13.36
64296;BMP280;51082;38.236;15.432;2023-03-21T04:41:19;100825.50;;;13.38
64296;BMP280;51082;38.236;15.432;2023-03-21T04:42:22;100822.09;;;13.37
64296;BMP280;51082;38.236;15.432;2023-03-21T04:43:24;100821.88;;;13.39
64296;BMP280;51082;38.236;15.432;2023-03-21T04:44:26;100817.88;;;13.36
64296;BMP280;51082;38.236;15.432;2023-03-21T04:45:29;100826.72;;;13.35
64296;BMP280;51082;38.236;15.432;2023-03-21T04:46:31;100826.72;;;13.35
64296;BMP280;51082;38.236;15.432;2023-03-21T04:47:34;100821.69;;;13.34
64296;BMP280;51082;38.236;15.432;2023-03-21T04:48:35;100819.06;;;13.34
64296;BMP280;51082;38.236;15.432;2023-03-21T04:49:38;100818.06;;;13.35
64296;BMP280;51082;38.236;15.432;2023-03-21T04:50:40;100829.13;;;13.37
64296;BMP280;51082;38.236;15.432;2023-03-21T04:51:42;100822.09;;;13.37
64296;BMP280;51082;38.236;15.432;2023-03-21T04:52:45;100820.03;;;13.39
64296;BMP280;51082;38.236;15.432;2023-03-21T04:53:48;100819.88;;;13.41
64296;BMP280;51082;38.236;15.432;2023-03-21T04:54:52;100816.84;;;13.44
64296;BMP280;51082;38.236;15.432;2023-03-21T04:55:55;100815.63;;;13.46
64296;BMP280;51082;38.236;15.432;2023-03-21T04:56:58;100820.66;;;13.48
64296;BMP280;51082;38.236;15.432;2023-03-21T04:58:02;100825.88;;;13.48
64296;BMP280;51082;38.236;15.432;2023-03-21T04:59:06;100824.28;;;13.47
64296;BMP280;51082;38.236;15.432;2023-03-21T05:00:10;100834.72;;;13.47
64296;BMP280;51082;38.236;15.432;2023-03-21T05:01:14;100821.66;;;13.47
64296;BMP280;51082;38.236;15.432;2023-03-21T05:02:20;100823.72;;;13.45
64296;BMP280;51082;38.236;15.432;2023-03-21T05:03:22;100831.56;;;13.45
64296;BMP280;51082;38.236;15.432;2023-03-21T05:04:25;100823.72;;;13.45
64296;BMP280;51082;38.236;15.432;2023-03-21T05:05:27;100823.72;;;13.45
64296;BMP280;51082;38.236;15.432;2023-03-21T05:06:32;100821.28;;;13.43
64296;BMP280;51082;38.236;15.432;2023-03-21T05:07:33;100824.88;;;13.42
64296;BMP280;51082;38.236;15.432;2023-03-21T05:08:36;100832.13;;;13.40
64296;BMP280;51082;38.236;15.432;2023-03-21T05:09:38;100826.91;;;13.40
64296;BMP280;51082;38.236;15.432;2023-03-21T05:10:41;100816.88;;;13.37
64296;BMP280;51082;38.236;15.432;2023-03-21T05:11:43;100838.16;;;13.41
64296;BMP280;51082;38.236;15.432;2023-03-21T05:12:46;100831.13;;;13.41
64296;BMP280;51082;38.236;15.432;2023-03-21T05:13:51;100832.94;;;13.41
64296;BMP280;51082;38.236;15.432;2023-03-21T05:14:52;100836.16;;;13.43
64296;BMP280;51082;38.236;15.432;2023-03-21T05:15:55;100835.97;;;13.44
64296;BMP280;51082;38.236;15.432;2023-03-21T05:16:58;100830.50;;;13.46
64296;BMP280;51082;38.236;15.432;2023-03-21T05:18:05;100826.88;;;13.47
64296;BMP280;51082;38.236;15.432;2023-03-21T05:19:11;100835.34;;;13.49
64296;BMP280;51082;38.236;15.432;2023-03-21T05:20:14;100828.09;;;13.51
64296;BMP280;51082;38.236;15.432;2023-03-21T05:21:17;100827.88;;;13.53
64296;BMP280;51082;38.236;15.432;2023-03-21T05:22:20;100837.56;;;13.52
64296;BMP280;51082;38.236;15.432;2023-03-21T05:23:22;100825.25;;;13.53
64296;BMP280;51082;38.236;15.432;2023-03-21T05:24:25;100830.31;;;13.54
64296;BMP280;51082;38.236;15.432;2023-03-21T05:25:27;100835.53;;;13.54
64296;BMP280;51082;38.236;15.432;2023-03-21T05:26:34;100829.28;;;13.55
64296;BMP280;51082;38.236;15.432;2023-03-21T05:27:36;100828.28;;;13.56
64296;BMP280;51082;38.236;15.432;2023-03-21T05:28:45;100822.03;;;13.57
64296;BMP280;51082;38.236;15.432;2023-03-21T05:29:49;100831.53;;;13.58
64296;BMP280;51082;38.236;15.432;2023-03-21T05:30:52;100834.91;;;13.59
64296;BMP280;51082;38.236;15.432;2023-03-21T05:31:55;100838.31;;;13.59
64296;BMP280;51082;38.236;15.432;2023-03-21T05:32:57;100841.75;;;13.60
64296;BMP280;51082;38.236;15.432;2023-03-21T05:33:59;100838.94;;;13.61
64296;BMP280;51082;38.236;15.432;2023-03-21T05:35:01;100843.34;;;13.61
64296;BMP280;51082;38.236;15.432;2023-03-21T05:36:05;100845.78;;;13.62
64296;BMP280;51082;38.236;15.432;2023-03-21T05:37:06;100840.56;;;13.62
64296;BMP280;51082;38.236;15.432;2023-03-21T05:38:09;100836.13;;;13.63
64296;BMP280;51082;38.236;15.432;2023-03-21T05:39:12;100833.69;;;13.61
64296;BMP280;51082;38.236;15.432;2023-03-21T05:40:14;100834.91;;;13.59
64296;BMP280;51082;38.236;15.432;2023-03-21T05:41:17;100831.91;;;13.55
64296;BMP280;51082;38.236;15.432;2023-03-21T05:42:19;100834.13;;;13.52
64296;BMP280;51082;38.236;15.432;2023-03-21T05:43:21;100829.28;;;13.48
64296;BMP280;51082;38.236;15.432;2023-03-21T05:44:23;100825.28;;;13.46
64296;BMP280;51082;38.236;15.432;2023-03-21T05:45:27;100818.84;;;13.42
64296;BMP280;51082;38.236;15.432;2023-03-21T05:46:29;100813.00;;;13.46
64296;BMP280;51082;38.236;15.432;2023-03-21T05:47:32;100811.19;;;13.47
64296;BMP280;51082;38.236;15.432;2023-03-21T05:48:34;100813.25;;;13.45
64296;BMP280;51082;38.236;15.432;2023-03-21T05:49:37;100816.44;;;13.47
64296;BMP280;51082;38.236;15.432;2023-03-21T05:50:40;100815.41;;;13.48
64296;BMP280;51082;38.236;15.432;2023-03-21T05:51:42;100820.47;;;13.50
64296;BMP280;51082;38.236;15.432;2023-03-21T05:52:45;100815.03;;;13.51
64296;BMP280;51082;38.236;15.432;2023-03-21T05:53:48;100819.25;;;13.52
64296;BMP280;51082;38.236;15.432;2023-03-21T05:54:49;100814.78;;;13.53
64296;BMP280;51082;38.236;15.432;2023-03-21T05:55:52;100821.25;;;13.57
64296;BMP280;51082;38.236;15.432;2023-03-21T05:56:54;100830.47;;;13.59
64296;BMP280;51082;38.236;15.432;2023-03-21T05:57:56;100821.41;;;13.62
64296;BMP280;51082;38.236;15.432;2023-03-21T05:58:58;100821.25;;;13.63
64296;BMP280;51082;38.236;15.432;2023-03-21T06:00:01;100825.22;;;13.66
64296;BMP280;51082;38.236;15.432;2023-03-21T06:01:05;100829.84;;;13.70
64296;BMP280;51082;38.236;15.432;2023-03-21T06:02:08;100837.28;;;13.73
64296;BMP280;51082;38.236;15.432;2023-03-21T06:03:10;100825.00;;;13.74
64296;BMP280;51082;38.236;15.432;2023-03-21T06:04:13;100828.25;;;13.76
64296;BMP280;51082;38.236;15.432;2023-03-21T06:05:15;100825.19;;;13.79
64296;BMP280;51082;38.236;15.432;2023-03-21T06:06:17;100825.97;;;13.79
64296;BMP280;51082;38.236;15.432;2023-03-21T06:07:19;100836.28;;;13.81
64296;BMP280;51082;38.236;15.432;2023-03-21T06:08:22;100825.59;;;13.83
64296;BMP280;51082;38.236;15.432;2023-03-21T06:09:24;100823.56;;;13.85